createdAt,value
2019-04-06T00:01:58.597Z,61.83
2019-04-06T00:04:24.791Z,64.67
2019-04-06T00:06:51.099Z,66.07
2019-04-06T00:09:17.414Z,66.30
2019-04-06T00:11:43.612Z,65.37
2019-04-06T00:14:09.942Z,64.47
2019-04-06T00:16:36.221Z,62.87
2019-04-06T00:19:02.513Z,64.00
2019-04-06T00:21:28.703Z,68.63
2019-04-06T00:23:54.808Z,67.47
2019-04-06T00:26:21.026Z,72.27
2019-04-06T00:28:47.245Z,67.10
2019-04-06T00:31:24.518Z,67.57
2019-04-06T00:33:50.855Z,69.23
2019-04-06T00:36:17.038Z,66.83
2019-04-06T00:38:43.227Z,67.63
2019-04-06T00:41:09.524Z,68.43
2019-04-06T00:43:35.804Z,68.47
2019-04-06T00:46:02.122Z,69.63
2019-04-06T00:48:28.245Z,70.10
2019-04-06T00:50:54.331Z,69.10
2019-04-06T00:53:20.603Z,67.93
2019-04-06T00:55:55.136Z,65.60
2019-04-06T00:58:14.723Z,68.87
2019-04-06T01:00:40.989Z,67.60
2019-04-06T01:03:07.141Z,66.27
2019-04-06T01:05:33.255Z,66.37
2019-04-06T01:07:59.384Z,66.60
2019-04-06T01:10:25.671Z,68.83
2019-04-06T01:12:51.978Z,68.60
2019-04-06T01:15:18.387Z,67.17
2019-04-06T01:17:44.788Z,68.13
2019-04-06T01:20:11.251Z,68.60
2019-04-06T01:22:37.433Z,69.17
2019-04-06T01:25:05.424Z,65.60
2019-04-06T01:27:31.516Z,67.50
2019-04-06T01:29:57.614Z,64.77
2019-04-06T01:32:23.849Z,66.53
2019-04-06T01:34:51.212Z,66.30
2019-04-06T01:37:17.394Z,65.50
2019-04-06T01:39:43.558Z,67.73
2019-04-06T01:42:09.788Z,67.67
2019-04-06T01:44:36.094Z,67.80
2019-04-06T01:47:02.473Z,66.53
2019-04-06T01:49:28.604Z,68.03
2019-04-06T01:51:54.695Z,67.00
2019-04-06T01:54:20.792Z,66.60
2019-04-06T01:56:46.892Z,63.10
2019-04-06T01:59:13.088Z,63.97
2019-04-06T02:01:41.170Z,65.97
2019-04-06T02:04:07.385Z,64.13
2019-04-06T02:06:33.579Z,65.00
2019-04-06T02:08:59.643Z,64.43
2019-04-06T02:11:25.850Z,66.20
2019-04-06T02:13:51.961Z,63.80
2019-04-06T02:16:18.072Z,66.90
2019-04-06T02:18:44.314Z,65.53
2019-04-06T02:21:10.466Z,64.57
2019-04-06T02:23:36.681Z,66.50
2019-04-06T02:26:03.955Z,64.17
2019-04-06T02:28:30.046Z,68.70
2019-04-06T02:31:13.177Z,64.37
2019-04-06T02:33:50.194Z,66.97
2019-04-06T02:36:18.178Z,68.67
2019-04-06T02:39:02.796Z,68.33
2019-04-06T02:41:36.045Z,69.00
2019-04-06T02:44:02.334Z,67.77
2019-04-06T02:46:30.972Z,69.70
2019-04-06T02:48:56.542Z,69.67
2019-04-06T02:51:23.726Z,70.03
2019-04-06T02:53:49.859Z,69.47
2019-04-06T02:56:15.919Z,69.73
2019-04-06T02:58:42.195Z,69.10
2019-04-06T03:01:08.293Z,70.93
2019-04-06T03:03:34.590Z,70.03
2019-04-06T03:06:00.867Z,72.87
2019-04-06T03:08:27.061Z,74.07
2019-04-06T03:10:53.403Z,71.43
2019-04-06T03:13:19.693Z,69.77
2019-04-06T03:15:46.027Z,73.00
2019-04-06T03:18:12.122Z,72.50
2019-04-06T03:20:38.390Z,72.80
2019-04-06T03:23:04.606Z,73.43
2019-04-06T03:25:30.715Z,74.13
2019-04-06T03:27:56.787Z,72.23
2019-04-06T03:30:23.014Z,70.47
2019-04-06T03:32:49.250Z,71.80
2019-04-06T03:35:15.451Z,71.67
2019-04-06T03:37:41.617Z,75.10
2019-04-06T03:40:08.044Z,71.37
2019-04-06T03:42:34.136Z,76.63
2019-04-06T03:45:00.227Z,73.53
2019-04-06T03:47:26.328Z,72.47
2019-04-06T03:49:52.528Z,74.80
2019-04-06T03:52:18.637Z,74.17
2019-04-06T03:54:44.712Z,74.00
2019-04-06T03:57:15.874Z,76.17
2019-04-06T03:59:39.133Z,75.50
2019-04-06T04:02:05.311Z,73.70
2019-04-06T04:04:31.439Z,72.97
2019-04-06T04:06:57.588Z,74.77
2019-04-06T04:09:23.836Z,74.13
2019-04-06T04:11:49.973Z,74.00
2019-04-06T04:14:16.051Z,76.57
2019-04-06T04:16:42.195Z,77.83
2019-04-06T04:19:09.460Z,74.73
2019-04-06T04:21:35.561Z,76.23
2019-04-06T04:24:01.941Z,78.73
2019-04-06T04:26:28.132Z,78.23
2019-04-06T04:28:54.266Z,76.77
2019-04-06T04:31:20.338Z,77.13
2019-04-06T04:33:46.435Z,77.23
2019-04-06T04:36:12.736Z,74.20
2019-04-06T04:38:38.916Z,79.20
2019-04-06T04:41:05.311Z,79.03
2019-04-06T04:43:31.430Z,76.20
2019-04-06T04:45:57.674Z,80.83
2019-04-06T04:48:23.972Z,81.40
2019-04-06T04:50:50.268Z,82.03
2019-04-06T04:53:16.440Z,82.43
2019-04-06T04:55:42.518Z,81.83
2019-04-06T04:58:08.647Z,84.17
2019-04-06T05:00:34.729Z,83.80
2019-04-06T05:03:01.149Z,85.27
2019-04-06T05:05:27.429Z,88.33
2019-04-06T05:07:53.525Z,85.37
2019-04-06T05:10:19.734Z,87.43
2019-04-06T05:12:45.938Z,90.10
2019-04-06T05:15:21.574Z,88.03
2019-04-06T05:17:47.686Z,88.17
2019-04-06T05:20:13.973Z,88.53
2019-04-06T05:22:40.331Z,89.50
2019-04-06T05:25:06.958Z,87.60
2019-04-06T05:27:33.341Z,90.40
2019-04-06T05:29:59.445Z,91.03
2019-04-06T05:32:25.668Z,88.47
2019-04-06T05:34:51.863Z,91.03
2019-04-06T05:37:17.972Z,88.37
2019-04-06T05:39:44.601Z,88.57
2019-04-06T05:42:10.759Z,87.63
2019-04-06T05:44:37.061Z,88.77
2019-04-06T05:47:03.310Z,89.47
2019-04-06T05:49:29.698Z,86.33
2019-04-06T05:51:56.282Z,85.57
2019-04-06T05:54:22.387Z,90.60
2019-04-06T05:56:48.670Z,87.00
2019-04-06T05:59:14.793Z,88.57
2019-04-06T06:01:41.060Z,90.90
2019-04-06T06:04:10.364Z,89.07
2019-04-06T06:06:35.427Z,85.53
2019-04-06T06:09:01.658Z,86.80
2019-04-06T06:11:28.550Z,84.47
2019-04-06T06:13:54.681Z,86.70
2019-04-06T06:16:20.764Z,85.07
2019-04-06T06:18:46.861Z,82.37
2019-04-06T06:21:14.235Z,83.33
2019-04-06T06:23:40.315Z,82.73
2019-04-06T06:26:08.370Z,82.43
2019-04-06T06:28:34.583Z,81.67
2019-04-06T06:31:00.774Z,78.63
2019-04-06T06:33:26.903Z,80.03
2019-04-06T06:35:53.114Z,78.40
2019-04-06T06:38:19.320Z,77.67
2019-04-06T06:40:45.676Z,77.63
2019-04-06T06:43:11.934Z,76.53
2019-04-06T06:45:38.205Z,81.43
2019-04-06T06:48:04.325Z,76.70
2019-04-06T06:50:30.532Z,76.17
2019-04-06T06:52:56.701Z,77.07
2019-04-06T06:55:23.025Z,78.37
2019-04-06T06:57:49.103Z,77.93
2019-04-06T07:00:15.407Z,75.73
2019-04-06T07:02:41.890Z,78.97
2019-04-06T07:05:08.195Z,74.97
2019-04-06T07:07:34.300Z,77.13
2019-04-06T07:10:05.935Z,76.40
2019-04-06T07:12:28.603Z,69.37
2019-04-06T07:14:54.862Z,70.63
2019-04-06T07:17:21.151Z,69.80
2019-04-06T07:19:47.278Z,72.10
2019-04-06T07:22:13.470Z,70.57
2019-04-06T07:24:39.557Z,70.17
2019-04-06T07:27:05.867Z,70.80
2019-04-06T07:29:32.250Z,70.60
2019-04-06T07:31:59.561Z,72.50
2019-04-06T07:34:25.669Z,69.40
2019-04-06T07:36:51.822Z,68.57
2019-04-06T07:39:17.923Z,64.37
2019-04-06T07:41:44.343Z,65.83
2019-04-06T07:44:10.515Z,63.80
2019-04-06T07:46:36.637Z,64.90
2019-04-06T07:49:09.128Z,61.03
2019-04-06T07:51:31.335Z,59.30
2019-04-06T07:53:57.469Z,57.47
2019-04-06T07:56:23.556Z,57.13
2019-04-06T07:58:50.763Z,57.00
2019-04-06T08:01:16.989Z,54.20
2019-04-06T08:03:43.156Z,56.20
2019-04-06T08:06:09.373Z,52.67
2019-04-06T08:08:35.570Z,56.27
2019-04-06T08:11:01.862Z,52.90
2019-04-06T08:13:28.206Z,52.27
2019-04-06T08:15:54.444Z,52.37
2019-04-06T08:18:20.620Z,54.20
2019-04-06T08:20:46.769Z,52.57
2019-04-06T08:23:13.041Z,51.17
2019-04-06T08:25:39.162Z,53.73
2019-04-06T08:28:05.588Z,51.80
2019-04-06T08:30:31.789Z,54.70
2019-04-06T08:32:57.993Z,51.77
2019-04-06T08:35:26.361Z,51.77
2019-04-06T08:37:52.516Z,52.00
2019-04-06T08:40:18.827Z,51.80
2019-04-06T08:42:45.317Z,52.93
2019-04-06T08:45:13.680Z,51.40
2019-04-06T08:47:39.666Z,53.20
2019-04-06T08:50:06.170Z,52.67
2019-04-06T08:52:32.272Z,51.03
2019-04-06T08:54:58.510Z,50.77
2019-04-06T08:57:24.736Z,50.23
2019-04-06T08:59:51.982Z,51.40
2019-04-06T09:02:18.811Z,51.93
2019-04-06T09:04:45.160Z,51.57
2019-04-06T09:07:11.533Z,52.93
2019-04-06T09:09:37.793Z,52.90
2019-04-06T09:12:04.039Z,51.93
2019-04-06T09:14:30.197Z,50.97
2019-04-06T09:16:56.307Z,50.87
2019-04-06T09:19:22.431Z,52.33
2019-04-06T09:21:48.681Z,50.43
2019-04-06T09:24:14.838Z,51.70
2019-04-06T09:26:41.165Z,51.80
2019-04-06T09:29:07.248Z,49.50
2019-04-06T09:31:34.333Z,51.10
2019-04-06T09:34:00.511Z,50.60
2019-04-06T09:36:26.728Z,51.37
2019-04-06T09:38:53.052Z,51.77
2019-04-06T09:41:19.226Z,52.03
2019-04-06T09:43:45.332Z,50.50
2019-04-06T09:46:17.366Z,51.70
2019-04-06T09:48:48.448Z,53.57
2019-04-06T09:51:34.872Z,50.47
2019-04-06T09:54:07.315Z,50.20
2019-04-06T09:56:48.053Z,50.80
2019-04-06T09:59:35.947Z,51.07
2019-04-06T10:02:19.370Z,50.87
2019-04-06T10:04:53.533Z,49.27
2019-04-06T10:07:36.678Z,49.83
2019-04-06T10:10:08.137Z,51.60
2019-04-06T10:12:36.153Z,51.03
2019-04-06T10:15:15.948Z,50.57
2019-04-06T10:17:45.811Z,49.50
2019-04-06T10:20:23.481Z,48.83
2019-04-06T10:22:51.495Z,50.10
2019-04-06T10:25:36.424Z,51.90
2019-04-06T10:28:07.563Z,49.50
2019-04-06T10:30:35.800Z,52.23
2019-04-06T10:33:19.123Z,50.90
2019-04-06T10:35:53.148Z,50.33
2019-04-06T10:38:21.438Z,51.37
2019-04-06T10:40:49.495Z,53.00
2019-04-06T10:43:34.149Z,49.40
2019-04-06T10:46:08.344Z,50.40
2019-04-06T10:48:53.205Z,46.13
2019-04-06T10:51:41.175Z,48.27
2019-04-06T10:54:09.577Z,48.77
2019-04-06T10:56:37.621Z,48.67
2019-04-06T10:59:17.777Z,47.40
2019-04-06T11:01:54.668Z,47.30
2019-04-06T11:04:32.831Z,45.97
2019-04-06T11:07:01.135Z,46.70
2019-04-06T11:09:31.984Z,43.93
2019-04-06T11:12:05.839Z,44.10
2019-04-06T11:14:39.857Z,45.93
2019-04-06T11:17:24.364Z,45.40
2019-04-06T11:19:55.329Z,45.53
2019-04-06T11:22:26.347Z,43.87
2019-04-06T11:24:57.606Z,41.87
2019-04-06T11:27:42.445Z,42.27
2019-04-06T11:30:17.393Z,43.77
2019-04-06T11:32:55.160Z,43.70
2019-04-06T11:35:32.425Z,44.53
2019-04-06T11:38:17.069Z,45.50
2019-04-06T11:40:57.600Z,42.33
2019-04-06T11:43:34.593Z,44.10
2019-04-06T11:46:06.190Z,42.83
2019-04-06T11:48:46.282Z,39.03
2019-04-06T11:51:14.413Z,40.70
2019-04-06T11:53:54.726Z,38.73
2019-04-06T11:56:37.773Z,40.27
2019-04-06T11:59:06.001Z,38.47
2019-04-06T12:01:50.685Z,37.97
2019-04-06T12:04:21.757Z,36.13
2019-04-06T12:06:49.856Z,36.50
2019-04-06T12:09:18.186Z,33.60
2019-04-06T12:11:52.448Z,34.33
2019-04-06T12:14:23.222Z,31.93
2019-04-06T12:17:00.015Z,34.00
2019-04-06T12:19:40.066Z,34.27
2019-04-06T12:22:23.739Z,32.77
2019-04-06T12:25:08.477Z,32.17
2019-04-06T12:27:51.423Z,31.63
2019-04-06T12:30:22.560Z,32.40
2019-04-06T12:32:50.810Z,30.67
2019-04-06T12:35:21.566Z,30.53
2019-04-06T12:37:55.578Z,32.80
2019-04-06T12:40:26.749Z,31.52
2019-04-06T12:42:54.911Z,30.70
2019-04-06T12:45:23.045Z,31.27
2019-04-06T12:47:57.348Z,29.70
2019-04-06T12:50:25.524Z,29.13
2019-04-06T12:53:10.199Z,30.10
2019-04-06T12:55:38.311Z,30.27
2019-04-06T12:58:23.713Z,28.70
2019-04-06T13:00:53.646Z,28.87
2019-04-06T13:03:27.913Z,28.73
2019-04-06T13:05:56.211Z,29.00
2019-04-06T13:08:24.277Z,29.27
2019-04-06T13:10:58.291Z,29.97
2019-04-06T13:13:38.700Z,28.00
2019-04-06T13:16:12.606Z,26.27
2019-04-06T13:18:57.527Z,27.43
2019-04-06T13:21:43.876Z,26.30
2019-04-06T13:24:15.187Z,26.23
2019-04-06T13:26:43.248Z,26.75
2019-04-06T13:29:27.959Z,27.77
2019-04-06T13:31:58.677Z,28.10
2019-04-06T13:34:32.733Z,26.62
2019-04-06T13:37:12.824Z,27.43
2019-04-06T13:39:43.630Z,26.63
2019-04-06T13:42:28.178Z,25.77
2019-04-06T13:44:56.311Z,24.90
2019-04-06T13:47:27.103Z,24.20
2019-04-06T13:50:10.140Z,23.73
2019-04-06T13:52:54.805Z,24.73
2019-04-06T13:55:28.966Z,24.37
2019-04-06T13:58:03.110Z,25.02
2019-04-06T14:00:43.257Z,25.90
2019-04-06T14:03:11.349Z,24.50
2019-04-06T14:05:45.363Z,25.10
2019-04-06T14:08:30.209Z,26.30
2019-04-06T14:11:04.289Z,25.07
2019-04-06T14:13:32.465Z,26.43
2019-04-06T14:16:03.769Z,24.80
2019-04-06T14:18:32.117Z,24.13
2019-04-06T14:21:09.444Z,24.93
2019-04-06T14:23:43.245Z,25.17
2019-04-06T14:26:29.738Z,23.87
2019-04-06T14:29:07.368Z,22.00
2019-04-06T14:31:35.509Z,22.43
2019-04-06T14:34:06.402Z,24.70
2019-04-06T14:36:51.653Z,21.87
2019-04-06T14:39:25.603Z,21.83
2019-04-06T14:41:54.050Z,21.80
2019-04-06T14:44:22.240Z,20.90
2019-04-06T14:47:06.828Z,21.43
2019-04-06T14:49:44.185Z,20.27
2019-04-06T14:52:15.689Z,21.30
2019-04-06T14:54:46.965Z,19.97
2019-04-06T14:57:15.692Z,21.77
2019-04-06T14:59:46.777Z,20.43
2019-04-06T15:02:27.274Z,20.30
2019-04-06T15:05:04.405Z,21.20
2019-04-06T15:07:32.520Z,21.43
2019-04-06T15:10:06.589Z,19.63
2019-04-06T15:12:34.820Z,19.57
2019-04-06T15:15:06.288Z,18.07
2019-04-06T15:17:35.740Z,18.23
2019-04-06T15:20:21.635Z,22.70
2019-04-06T15:23:02.293Z,19.12
2019-04-06T15:25:30.351Z,19.00
2019-04-06T15:28:04.294Z,18.03
2019-04-06T15:30:32.635Z,15.33
2019-04-06T15:33:18.947Z,15.20
2019-04-06T15:36:06.290Z,16.57
2019-04-06T15:38:34.341Z,14.43
2019-04-06T15:41:02.855Z,13.90
2019-04-06T15:43:49.056Z,13.37
2019-04-06T15:46:35.741Z,13.37
2019-04-06T15:49:10.129Z,12.95
2019-04-06T15:51:44.088Z,12.33
2019-04-06T15:54:27.454Z,12.93
2019-04-06T15:56:56.084Z,12.83
2019-04-06T15:59:39.686Z,13.00
2019-04-06T16:02:07.839Z,14.20
2019-04-06T16:04:36.082Z,14.10
2019-04-06T16:07:07.292Z,14.33
2019-04-06T16:09:54.158Z,13.30
2019-04-06T16:12:39.073Z,11.67
2019-04-06T16:15:22.712Z,12.10
2019-04-06T16:17:57.190Z,13.07
2019-04-06T16:20:44.096Z,12.70
2019-04-06T16:23:14.897Z,13.27
2019-04-06T16:26:01.075Z,15.30
2019-04-06T16:28:47.719Z,16.47
2019-04-06T16:31:19.121Z,16.13
2019-04-06T16:33:47.259Z,17.03
2019-04-06T16:36:34.950Z,15.33
2019-04-06T16:39:09.108Z,15.10
2019-04-06T16:41:37.286Z,15.63
2019-04-06T16:44:05.965Z,14.10
2019-04-06T16:46:36.968Z,13.77
2019-04-06T16:49:11.221Z,14.70
2019-04-06T16:51:56.054Z,14.47
2019-04-06T16:54:42.430Z,16.43
2019-04-06T16:57:10.526Z,15.77
2019-04-06T16:59:38.897Z,16.23
2019-04-06T17:02:21.654Z,16.60
2019-04-06T17:04:39.993Z,17.80
2019-04-06T17:07:08.619Z,17.23
2019-04-06T17:09:43.248Z,17.37
2019-04-06T17:12:14.316Z,17.83
2019-04-06T17:14:45.026Z,18.40
2019-04-06T17:17:13.171Z,18.70
2019-04-06T17:19:50.743Z,20.13
2019-04-06T17:22:24.802Z,19.70
2019-04-06T17:25:02.038Z,20.77
2019-04-06T17:27:30.254Z,21.90
2019-04-06T17:30:07.379Z,22.10
2019-04-06T17:32:37.872Z,23.23
2019-04-06T17:35:07.428Z,22.60
2019-04-06T17:37:52.335Z,24.97
2019-04-06T17:40:23.419Z,24.73
2019-04-06T17:42:51.598Z,25.00
2019-04-06T17:45:36.209Z,25.70
2019-04-06T17:48:04.516Z,27.00
2019-04-06T17:50:32.639Z,27.90
2019-04-06T17:53:03.736Z,27.03
2019-04-06T17:55:32.266Z,28.30
2019-04-06T17:58:06.241Z,30.10
2019-04-06T18:00:40.710Z,29.97
2019-04-06T18:03:09.069Z,34.03
2019-04-06T18:05:52.147Z,30.97
2019-04-06T18:08:20.385Z,29.93
2019-04-06T18:10:58.242Z,31.67
2019-04-06T18:13:43.500Z,33.03
2019-04-06T18:16:09.990Z,39.27
2019-04-06T18:18:36.316Z,38.40
2019-04-06T18:21:03.187Z,37.03
2019-04-06T18:23:30.110Z,35.57
2019-04-06T18:25:56.734Z,35.33
2019-04-06T18:28:22.965Z,37.03
2019-04-06T18:30:51.274Z,38.27
2019-04-06T18:33:19.370Z,38.00
2019-04-06T18:35:45.614Z,35.90
2019-04-06T18:38:25.674Z,37.80
2019-04-06T18:40:52.545Z,37.67
2019-04-06T18:45:41.480Z,39.67
2019-04-06T18:48:07.868Z,39.37
2019-04-06T18:50:38.329Z,38.87
2019-04-06T18:53:02.485Z,39.40
2019-04-06T18:55:28.947Z,39.67
2019-04-06T18:57:57.064Z,39.87
2019-04-06T19:00:24.218Z,43.03
2019-04-06T19:02:50.509Z,40.87
2019-04-06T19:05:17.291Z,40.30
2019-04-06T19:07:43.676Z,40.67
2019-04-06T19:10:10.730Z,42.00
2019-04-06T19:12:36.950Z,41.57
2019-04-06T19:15:05.921Z,41.70
2019-04-06T19:17:32.257Z,40.57
2019-04-06T19:19:58.512Z,42.93
2019-04-06T19:22:25.151Z,40.27
2019-04-06T19:24:51.467Z,42.53
2019-04-06T19:27:18.271Z,43.17
2019-04-06T19:29:44.589Z,43.17
2019-04-06T19:32:10.759Z,42.37
2019-04-06T19:34:37.204Z,43.23
2019-04-06T19:37:03.861Z,44.13
2019-04-06T19:39:30.734Z,43.97
2019-04-06T19:41:57.414Z,44.53
2019-04-06T19:44:23.714Z,44.60
2019-04-06T19:46:50.425Z,44.27
2019-04-06T19:49:16.706Z,47.07
2019-04-06T19:51:43.093Z,53.30
2019-04-06T19:54:09.553Z,46.57
2019-04-06T19:56:35.868Z,47.40
2019-04-06T19:59:02.956Z,48.23
2019-04-06T20:01:29.681Z,48.57
2019-04-06T20:03:55.905Z,48.87
2019-04-06T20:06:22.214Z,46.80
2019-04-06T20:08:48.468Z,47.33
2019-04-06T20:11:14.627Z,48.83
2019-04-06T20:13:41.066Z,48.37
2019-04-06T20:16:07.458Z,47.57
2019-04-06T20:18:33.595Z,46.53
2019-04-06T20:21:00.871Z,48.17
2019-04-06T20:23:27.389Z,47.00
2019-04-06T20:25:53.754Z,47.20
2019-04-06T20:28:20.053Z,45.97
2019-04-06T20:30:47.735Z,46.43
2019-04-06T20:33:14.009Z,45.73
2019-04-06T20:35:40.572Z,47.87
2019-04-06T20:38:07.460Z,45.67
2019-04-06T20:40:33.733Z,46.00
2019-04-06T20:43:00.125Z,46.90
2019-04-06T20:45:26.822Z,45.33
2019-04-06T20:47:53.013Z,47.40
2019-04-06T20:50:19.160Z,45.63
2019-04-06T20:52:45.315Z,44.67
2019-04-06T20:55:11.623Z,45.23
2019-04-06T20:57:38.343Z,46.27
2019-04-06T21:00:07.916Z,46.00
2019-04-06T21:02:36.195Z,47.13
2019-04-06T21:05:05.552Z,45.63
2019-04-06T21:07:32.404Z,47.70
2019-04-06T21:09:58.716Z,46.80
2019-04-06T21:12:26.293Z,45.43
2019-04-06T21:14:53.700Z,47.50
2019-04-06T21:17:21.818Z,48.90
2019-04-06T21:19:48.069Z,47.63
2019-04-06T21:22:14.410Z,48.03
2019-04-06T21:24:40.723Z,46.97
2019-04-06T21:27:07.660Z,49.77
2019-04-06T21:29:34.551Z,47.40
2019-04-06T21:32:00.955Z,49.73
2019-04-06T21:34:27.265Z,48.30
2019-04-06T21:36:53.789Z,47.73
2019-04-06T21:39:20.194Z,49.27
2019-04-06T21:41:46.393Z,50.67
2019-04-06T21:44:12.853Z,47.53
2019-04-06T21:46:39.337Z,51.50
2019-04-06T21:49:06.130Z,48.90
2019-04-06T21:51:32.525Z,50.73
2019-04-06T21:53:58.766Z,49.20
2019-04-06T21:56:24.972Z,51.77
2019-04-06T21:58:51.688Z,51.30
2019-04-06T22:01:18.627Z,50.30
2019-04-06T22:03:47.342Z,50.07
2019-04-06T22:06:13.922Z,54.80
2019-04-06T22:08:40.729Z,56.97
2019-04-06T22:11:07.237Z,50.13
2019-04-06T22:13:33.560Z,50.23
2019-04-06T22:15:59.907Z,51.70
2019-04-06T22:18:26.084Z,51.97
2019-04-06T22:20:52.511Z,51.60
2019-04-06T22:23:18.728Z,56.07
2019-04-06T22:25:44.958Z,46.77
2019-04-06T22:28:11.229Z,49.70
2019-04-06T22:30:38.348Z,50.80
2019-04-06T22:33:04.899Z,51.23
2019-04-06T22:35:31.218Z,54.90
2019-04-06T22:37:57.488Z,45.97
2019-04-06T22:40:23.815Z,54.57
2019-04-06T22:42:50.373Z,52.07
2019-04-06T22:45:18.608Z,64.80
2019-04-06T22:47:45.190Z,61.37
2019-04-06T22:50:11.957Z,61.87
2019-04-06T22:52:38.390Z,61.40
2019-04-06T22:55:07.451Z,61.67
2019-04-06T22:57:33.900Z,56.50
2019-04-06T23:00:00.825Z,54.27
2019-04-06T23:02:29.186Z,55.37
2019-04-06T23:04:57.738Z,54.90
2019-04-06T23:07:25.910Z,55.67
2019-04-06T23:09:52.139Z,51.67
2019-04-06T23:12:18.484Z,50.90
2019-04-06T23:14:44.609Z,59.93
2019-04-06T23:17:11.205Z,56.77
2019-04-06T23:19:37.622Z,59.70
2019-04-06T23:22:07.081Z,58.73
2019-04-06T23:24:33.333Z,56.03
2019-04-06T23:26:59.588Z,53.53
2019-04-06T23:29:25.734Z,54.93
2019-04-06T23:31:52.146Z,53.80
2019-04-06T23:34:19.208Z,51.13
2019-04-06T23:36:46.330Z,44.47
2019-04-06T23:39:12.656Z,53.93
2019-04-06T23:41:40.896Z,58.30
2019-04-06T23:44:07.888Z,44.87
2019-04-06T23:46:35.007Z,58.90
2019-04-06T23:49:02.612Z,49.37
2019-04-06T23:51:29.312Z,57.00
2019-04-06T23:53:56.202Z,58.63
2019-04-06T23:56:22.627Z,62.67
2019-04-06T23:58:48.755Z,58.90
